Time;durP1;ratioP1;P1;durP2;ratioP2;P2;SDS_P1;SDS_P2;PMS_P1;PMS_P2;Temp;Humidity;BMP_temperature;BMP_pressure;BME280_temperature;BME280_humidity;BME280_pressure;Samples;Min_cycle;Max_cycle;Signal;HPM_P1;HPM_P2
2023/01/23 00:02:04;;;;;;;39.80;17.60;;;;;;;;;;106191;1288;22546;-81
2023/01/23 00:04:58;;;;;;;39.90;16.90;;;;;;;;;;106274;1288;25361;-83
2023/01/23 00:07:56;;;;;;;35.90;15.70;;;;;;;;;;106162;1279;22642;-86
2023/01/23 00:10:55;;;;;;;;;;;;;;;;;;;;;
2023/01/23 00:13:38;;;;;;;39.20;14.80;;;;;;;;;;106492;1285;22562;-80
2023/01/23 00:19:59;;;;;;;40.00;15.90;;;;;;;;;;105935;1289;24362;-80
2023/01/23 00:22:35;;;;;;;39.40;15.40;;;;;;;;;;105762;1293;22638;-85
2023/01/23 00:25:25;;;;;;;37.40;15.50;;;;;;;;;;105762;1293;22656;-83
2023/01/23 00:28:28;;;;;;;;;;;;;;;;;;;;;
2023/01/23 00:31:21;;;;;;;;;;;;;;;;;;;;;
2023/01/23 00:34:00;;;;;;;40.20;16.00;;;;;;;;;;105990;1292;23906;-81
2023/01/23 00:37:36;;;;;;;44.10;16.50;;;;;;;;;;105887;1270;22604;-85
2023/01/23 00:39:49;;;;;;;46.80;16.70;;;;;;;;;;105749;1293;22556;-85
2023/01/23 00:43:15;;;;;;;;;;;;;;;;;;;;;
2023/01/23 00:46:25;;;;;;;;;;;;;;;;;;;;;
2023/01/23 00:50:10;;;;;;;43.10;17.10;;;;;;;;;;105826;1292;25353;-81
2023/01/23 00:55:39;;;;;;;46.80;17.80;;;;;;;;;;105871;1286;22491;-86
2023/01/23 00:58:13;;;;;;;42.80;17.50;;;;;;;;;;106096;1278;22540;-84
2023/01/23 01:01:22;;;;;;;48.20;19.00;;;;;;;;;;106417;1286;22535;-81
2023/01/23 01:04:32;;;;;;;56.70;19.20;;;;;;;;;;106382;1286;25339;-83
2023/01/23 01:07:17;;;;;;;;;;;;;;;;;;;;;
2023/01/23 01:10:28;;;;;;;;;;;;;;;;;;;;;
2023/01/23 01:13:18;;;;;;;45.50;17.90;;;;;;;;;;106184;1287;24214;-81
2023/01/23 01:19:20;;;;;;;48.60;17.00;;;;;;;;;;106314;1263;24235;-81
2023/01/23 01:22:59;;;;;;;51.00;18.30;;;;;;;;;;106429;1277;24424;-83
2023/01/23 01:25:03;;;;;;;47.60;19.90;;;;;;;;;;106885;1278;24616;-79
2023/01/23 01:27:43;;;;;;;47.80;17.80;;;;;;;;;;106904;1267;25349;-79
2023/01/23 01:30:39;;;;;;;43.80;16.20;;;;;;;;;;106850;1278;25282;-78
2023/01/23 01:33:49;;;;;;;43.10;17.00;;;;;;;;;;106818;1278;22549;-82
2023/01/23 01:36:41;;;;;;;42.60;17.30;;;;;;;;;;106864;1277;24041;-79
2023/01/23 01:39:42;;;;;;;48.70;17.50;;;;;;;;;;106903;1260;24212;-79
2023/01/23 01:42:49;;;;;;;35.00;15.40;;;;;;;;;;106374;1285;23890;-78
2023/01/23 01:46:19;;;;;;;40.80;15.40;;;;;;;;;;106307;1285;22542;-82
2023/01/23 01:49:28;;;;;;;39.70;16.00;;;;;;;;;;106330;1267;25412;-77
2023/01/23 01:52:45;;;;;;;39.50;16.30;;;;;;;;;;106401;1285;22665;-82
2023/01/23 01:55:33;;;;;;;37.10;15.40;;;;;;;;;;106273;1285;21899;-82
2023/01/23 01:58:13;;;;;;;40.40;15.70;;;;;;;;;;106276;1285;22554;-79
2023/01/23 02:01:34;;;;;;;;;;;;;;;;;;;;;
2023/01/23 02:04:36;;;;;;;51.70;15.60;;;;;;;;;;106552;1285;22759;-80
2023/01/23 02:08:31;;;;;;;47.20;15.70;;;;;;;;;;106381;1285;25464;-82
2023/01/23 02:11:44;;;;;;;;;;;;;;;;;;;;;
2023/01/23 02:14:40;;;;;;;40.40;15.20;;;;;;;;;;105970;1291;22550;-79
2023/01/23 02:17:12;;;;;;;34.80;14.90;;;;;;;;;;105894;1291;22548;-78
2023/01/23 02:20:38;;;;;;;43.30;15.80;;;;;;;;;;105979;1263;25518;-80
2023/01/23 02:23:37;;;;;;;41.40;15.10;;;;;;;;;;106438;1285;24194;-82
2023/01/23 02:34:27;;;;;;;43.80;16.30;;;;;;;;;;104331;1288;544983;-79
2023/01/23 02:37:49;;;;;;;48.10;15.70;;;;;;;;;;106410;1286;22793;-79
2023/01/23 02:40:35;;;;;;;63.60;16.60;;;;;;;;;;106324;1286;22627;-80
2023/01/23 02:43:47;;;;;;;79.90;18.50;;;;;;;;;;106308;1286;25581;-78
2023/01/23 02:47:23;;;;;;;41.00;15.50;;;;;;;;;;105697;1277;22567;-80
2023/01/23 02:49:34;;;;;;;42.60;16.10;;;;;;;;;;102395;1286;22546;-80
2023/01/23 02:52:16;;;;;;;40.30;15.60;;;;;;;;;;106094;1286;22560;-78
2023/01/23 02:55:03;;;;;;;39.70;15.10;;;;;;;;;;106005;1284;24744;-80
2023/01/23 03:00:14;;;;;;;38.10;14.80;;;;;;;;;;106263;1284;24079;-81
2023/01/23 03:01:17;;;;;;;42.80;14.10;;;;;;;;;;105980;1291;22655;-82
2023/01/23 03:04:00;;;;;;;;;;;;;;;;;;;;;
2023/01/23 03:06:34;;;;;;;41.10;15.20;;;;;;;;;;105856;1285;24279;-80
2023/01/23 03:09:35;;;;;;;41.60;16.50;;;;;;;;;;105934;1291;24215;-78
2023/01/23 03:13:00;;;;;;;37.80;15.80;;;;;;;;;;105931;1291;24245;-81
2023/01/23 03:15:26;;;;;;;38.70;15.10;;;;;;;;;;105853;1267;25373;-80
2023/01/23 03:18:33;;;;;;;;;;;;;;;;;;;;;
2023/01/23 03:21:32;;;;;;;44.20;15.40;;;;;;;;;;105860;1291;22552;-83
2023/01/23 03:24:47;;;;;;;;;;;;;;;;;;;;;
2023/01/23 03:27:20;;;;;;;47.10;17.30;;;;;;;;;;106657;1267;22716;-80
2023/01/23 03:32:54;;;;;;;46.30;17.80;;;;;;;;;;106416;1284;24343;-78
2023/01/23 03:35:27;;;;;;;46.70;18.00;;;;;;;;;;106329;1284;22593;-79
2023/01/23 03:38:26;;;;;;;48.30;17.60;;;;;;;;;;106575;1278;22552;-79
2023/01/23 03:41:47;;;;;;;;;;;;;;;;;;;;;
2023/01/23 03:50:51;;;;;;;47.70;15.70;;;;;;;;;;106882;1277;22536;-81
2023/01/23 03:53:42;;;;;;;52.30;15.70;;;;;;;;;;106874;1277;21976;-83
2023/01/23 03:56:59;;;;;;;56.50;17.20;;;;;;;;;;106869;1261;25432;-80
2023/01/23 04:00:12;;;;;;;53.90;16.70;;;;;;;;;;106685;1278;24246;-77
2023/01/23 04:03:31;;;;;;;52.30;16.70;;;;;;;;;;106884;1278;25413;-81
2023/01/23 04:06:33;;;;;;;47.20;15.10;;;;;;;;;;106883;1260;24190;-84
2023/01/23 04:09:17;;;;;;;51.70;15.50;;;;;;;;;;106994;1277;24351;-82
2023/01/23 04:12:30;;;;;;;50.90;16.10;;;;;;;;;;106887;1277;22536;-82
2023/01/23 04:17:57;;;;;;;36.10;12.20;;;;;;;;;;106905;1256;24260;-78
2023/01/23 04:20:47;;;;;;;42.20;14.60;;;;;;;;;;106806;1278;22635;-79
2023/01/23 04:23:44;;;;;;;;;;;;;;;;;;;;;
2023/01/23 04:26:52;;;;;;;40.50;14.40;;;;;;;;;;106783;1278;23634;-83
2023/01/23 04:29:59;;;;;;;37.20;14.60;;;;;;;;;;107246;1272;22546;-81
2023/01/23 04:33:11;;;;;;;30.70;12.50;;;;;;;;;;107173;1272;25342;-78
2023/01/23 04:36:06;;;;;;;34.70;13.60;;;;;;;;;;107303;1272;25246;-81
2023/01/23 04:38:59;;;;;;;37.60;13.50;;;;;;;;;;107196;1256;22536;-82
2023/01/23 04:41:49;;;;;;;35.00;12.80;;;;;;;;;;107182;1273;24215;-77
2023/01/23 04:45:12;;;;;;;;;;;;;;;;;;;;;
2023/01/23 04:48:28;;;;;;;37.20;12.70;;;;;;;;;;107258;1272;22611;-78
2023/01/23 04:51:36;;;;;;;35.90;13.60;;;;;;;;;;107294;1272;24476;-78
2023/01/23 04:54:44;;;;;;;31.20;13.00;;;;;;;;;;107359;1272;22532;-81
2023/01/23 04:57:22;;;;;;;35.00;12.70;;;;;;;;;;107189;1251;22530;-77
2023/01/23 05:00:21;;;;;;;40.10;14.00;;;;;;;;;;107075;1273;22549;-77
2023/01/23 05:03:00;;;;;;;;;;;;;;;;;;;;;
2023/01/23 05:05:43;;;;;;;51.50;15.20;;;;;;;;;;107222;1273;22527;-78
2023/01/23 05:08:53;;;;;;;36.80;13.40;;;;;;;;;;107182;1250;24113;-79
2023/01/23 05:12:02;;;;;;;39.80;14.00;;;;;;;;;;106981;1272;22534;-79
2023/01/23 05:14:35;;;;;;;40.80;14.20;;;;;;;;;;107241;1273;22532;-77
2023/01/23 05:21:15;;;;;;;39.30;13.90;;;;;;;;;;106806;1263;22532;-81
2023/01/23 05:24:09;;;;;;;37.80;13.10;;;;;;;;;;106915;1277;24674;-81
2023/01/23 05:27:17;;;;;;;;;;;;;;;;;;;;;
2023/01/23 05:30:08;;;;;;;41.90;12.70;;;;;;;;;;106840;1267;22547;-80
2023/01/23 05:33:01;;;;;;;35.50;13.10;;;;;;;;;;106981;1276;22530;-76
2023/01/23 05:39:03;;;;;;;42.60;14.50;;;;;;;;;;106933;1276;22761;-76
2023/01/23 05:45:37;;;;;;;;;;;;;;;;;;;;;
2023/01/23 05:48:36;;;;;;;46.90;14.30;;;;;;;;;;107074;1274;24312;-80
2023/01/23 05:51:36;;;;;;;42.50;14.20;;;;;;;;;;107096;1256;25391;-81
2023/01/23 05:54:50;;;;;;;37.70;14.00;;;;;;;;;;107102;1266;25959;-77
2023/01/23 05:57:48;;;;;;;53.70;16.90;;;;;;;;;;107142;1272;24267;-78
2023/01/23 06:01:25;;;;;;;;;;;;;;;;;;;;;
2023/01/23 06:04:31;;;;;;;42.80;14.00;;;;;;;;;;107243;1269;22539;-78
2023/01/23 06:08:14;;;;;;;40.80;14.30;;;;;;;;;;107187;1274;24263;-77
2023/01/23 06:11:20;;;;;;;61.50;16.10;;;;;;;;;;107172;1274;24368;-79
2023/01/23 06:14:01;;;;;;;;;;;;;;;;;;;;;
2023/01/23 06:17:00;;;;;;;45.20;14.50;;;;;;;;;;107181;1269;22682;-79
2023/01/23 06:26:55;;;;;;;52.70;15.90;;;;;;;;;;104068;1300;544957;-78
2023/01/23 06:29:39;;;;;;;49.10;14.60;;;;;;;;;;106319;1285;22579;-84
2023/01/23 06:35:42;;;;;;;40.30;16.60;;;;;;;;;;106421;1276;22602;-76
2023/01/23 06:38:54;;;;;;;38.80;15.10;;;;;;;;;;106418;1276;25357;-77
2023/01/23 06:42:09;;;;;;;46.10;16.90;;;;;;;;;;103171;1281;4623501;-82
2023/01/23 06:45:06;;;;;;;47.80;16.80;;;;;;;;;;106462;1279;25284;-79
2023/01/23 06:48:10;;;;;;;54.10;18.70;;;;;;;;;;106030;1279;26522;-80
2023/01/23 06:54:05;;;;;;;55.10;16.50;;;;;;;;;;106312;1288;25370;-76
2023/01/23 06:56:51;;;;;;;42.70;14.60;;;;;;;;;;105999;1287;22547;-80
2023/01/23 06:59:24;;;;;;;48.20;15.40;;;;;;;;;;106010;1288;22543;-77
2023/01/23 07:02:32;;;;;;;51.20;14.80;;;;;;;;;;106163;1288;24304;-77
2023/01/23 07:05:12;;;;;;;33.90;12.50;;;;;;;;;;106099;1288;22546;-76
2023/01/23 07:07:54;;;;;;;42.70;15.20;;;;;;;;;;106104;1270;22660;-81
2023/01/23 07:10:38;;;;;;;63.00;16.50;;;;;;;;;;106033;1288;22735;-78
2023/01/23 07:13:48;;;;;;;42.10;13.60;;;;;;;;;;106389;1282;22539;-80
2023/01/23 07:16:56;;;;;;;39.30;13.60;;;;;;;;;;106421;1282;23941;-81
2023/01/23 07:19:52;;;;;;;;;;;;;;;;;;;;;
2023/01/23 07:22:22;;;;;;;41.50;14.50;;;;;;;;;;106957;1276;25942;-79
2023/01/23 07:25:00;;;;;;;47.00;15.30;;;;;;;;;;106932;1276;22618;-82
2023/01/23 07:27:40;;;;;;;;;;;;;;;;;;;;;
2023/01/23 07:30:30;;;;;;;51.30;17.50;;;;;;;;;;106928;1264;23907;-77
2023/01/23 07:33:02;;;;;;;55.70;17.60;;;;;;;;;;106816;1276;22540;-78
2023/01/23 07:36:13;;;;;;;47.00;15.90;;;;;;;;;;106837;1276;24520;-81
2023/01/23 07:38:46;;;;;;;48.70;16.50;;;;;;;;;;106929;1273;22542;-76
2023/01/23 07:42:31;;;;;;;46.00;17.30;;;;;;;;;;106907;1277;25253;-80
2023/01/23 07:45:59;;;;;;;39.80;13.70;;;;;;;;;;106734;1277;22536;-80
2023/01/23 07:48:40;;;;;;;39.00;13.80;;;;;;;;;;106863;1257;22548;-77
2023/01/23 07:51:49;;;;;;;37.90;13.40;;;;;;;;;;106930;1262;22589;-81
2023/01/23 07:54:40;;;;;;;39.20;13.90;;;;;;;;;;106383;1284;24249;-84
2023/01/23 07:57:29;;;;;;;40.80;15.90;;;;;;;;;;106371;1284;25291;-82
2023/01/23 08:00:22;;;;;;;33.70;12.60;;;;;;;;;;106384;1283;25906;-83
2023/01/23 08:02:58;;;;;;;37.70;13.90;;;;;;;;;;106364;1283;22540;-76
2023/01/23 08:08:39;;;;;;;41.20;15.70;;;;;;;;;;106352;1260;23935;-80
2023/01/23 08:14:07;;;;;;;43.10;14.90;;;;;;;;;;106376;1284;22556;-77
2023/01/23 08:17:32;;;;;;;41.40;14.70;;;;;;;;;;106298;1284;25246;-79
2023/01/23 08:20:14;;;;;;;42.90;15.30;;;;;;;;;;106397;1264;22496;-80
2023/01/23 08:23:04;;;;;;;40.90;15.10;;;;;;;;;;106401;1283;25304;-78
2023/01/23 08:26:01;;;;;;;38.90;14.10;;;;;;;;;;106453;1283;24066;-78
2023/01/23 08:29:30;;;;;;;36.40;13.80;;;;;;;;;;106403;1263;25422;-77
2023/01/23 08:32:16;;;;;;;45.80;17.30;;;;;;;;;;106672;1277;25236;-84
2023/01/23 08:34:48;;;;;;;42.50;16.80;;;;;;;;;;106855;1277;24193;-78
2023/01/23 08:38:09;;;;;;;40.60;15.00;;;;;;;;;;106846;1277;22570;-76
2023/01/23 08:41:13;;;;;;;45.50;15.50;;;;;;;;;;106945;1256;24202;-77
2023/01/23 08:44:05;;;;;;;56.10;18.50;;;;;;;;;;106233;1288;22550;-80
2023/01/23 08:46:54;;;;;;;53.00;18.10;;;;;;;;;;106161;1288;24542;-79
2023/01/23 08:49:47;;;;;;;47.20;19.30;;;;;;;;;;106384;1284;22881;-77
2023/01/23 08:52:40;;;;;;;;;;;;;;;;;;;;;
2023/01/23 08:55:37;;;;;;;45.60;17.60;;;;;;;;;;106433;1284;25318;-80
2023/01/23 08:59:01;;;;;;;46.90;17.20;;;;;;;;;;106384;1284;22543;-82
2023/01/23 09:01:27;;;;;;;45.30;16.10;;;;;;;;;;106335;1266;22624;-81
2023/01/23 09:04:17;;;;;;;46.70;16.10;;;;;;;;;;106248;1285;24216;-77
2023/01/23 09:07:16;;;;;;;49.90;17.50;;;;;;;;;;106365;1285;23937;-79
2023/01/23 09:09:59;;;;;;;;;;;;;;;;;;;;;
2023/01/23 09:12:44;;;;;;;36.00;14.10;;;;;;;;;;106358;1284;22714;-78
2023/01/23 09:15:18;;;;;;;38.60;14.40;;;;;;;;;;106565;1280;22808;-77
2023/01/23 09:18:17;;;;;;;40.90;15.50;;;;;;;;;;106718;1280;22514;-80
2023/01/23 09:21:10;;;;;;;52.40;16.70;;;;;;;;;;106882;1263;22560;-82
2023/01/23 09:24:29;;;;;;;44.00;16.10;;;;;;;;;;107168;1274;22529;-82
2023/01/23 09:27:28;;;;;;;45.60;14.50;;;;;;;;;;107175;1274;22531;-77
2023/01/23 09:30:25;;;;;;;43.60;15.90;;;;;;;;;;107223;1250;22528;-76
2023/01/23 09:33:25;;;;;;;;;;;;;;;;;;;;;
2023/01/23 09:36:30;;;;;;;43.70;14.90;;;;;;;;;;107201;1274;22531;-80
2023/01/23 09:39:02;;;;;;;47.30;15.80;;;;;;;;;;106925;1274;22543;-77
2023/01/23 09:42:20;;;;;;;54.40;16.10;;;;;;;;;;107050;1258;24951;-82
2023/01/23 09:45:27;;;;;;;33.90;12.80;;;;;;;;;;107092;1275;23337;-76
2023/01/23 09:48:27;;;;;;;43.40;16.10;;;;;;;;;;107082;1275;22499;-83
2023/01/23 09:51:07;;;;;;;49.70;16.30;;;;;;;;;;107161;1256;25236;-77
2023/01/23 09:54:27;;;;;;;;;;;;;;;;;;;;;
2023/01/23 09:57:12;;;;;;;53.30;17.90;;;;;;;;;;107173;1274;22653;-80
2023/01/23 10:00:07;;;;;;;57.50;17.60;;;;;;;;;;106902;1274;22553;-76
2023/01/23 10:02:56;;;;;;;60.30;17.40;;;;;;;;;;107055;1256;22659;-77
2023/01/23 10:05:34;;;;;;;43.40;15.90;;;;;;;;;;106907;1265;25357;-80
2023/01/23 10:08:27;;;;;;;40.30;14.10;;;;;;;;;;106962;1275;22640;-81
2023/01/23 10:11:41;;;;;;;42.80;15.50;;;;;;;;;;107109;1251;22544;-80
2023/01/23 10:14:44;;;;;;;;;;;;;;;;;;;;;
2023/01/23 10:18:02;;;;;;;46.40;18.40;;;;;;;;;;107129;1275;25333;-80
2023/01/23 10:23:59;;;;;;;48.40;18.80;;;;;;;;;;107068;1257;22529;-83
2023/01/23 10:26:30;;;;;;;50.40;19.20;;;;;;;;;;106968;1275;24863;-79
2023/01/23 10:30:19;;;;;;;61.60;20.80;;;;;;;;;;106905;1275;25357;-78
2023/01/23 10:32:46;;;;;;;49.10;17.30;;;;;;;;;;107073;1255;22547;-77
2023/01/23 10:35:46;;;;;;;50.90;17.20;;;;;;;;;;106935;1275;23000;-76
2023/01/23 10:38:25;;;;;;;42.40;15.20;;;;;;;;;;106932;1275;22532;-83
2023/01/23 10:41:43;;;;;;;;;;;;;;;;;;;;;
2023/01/23 10:44:33;;;;;;;40.40;15.70;;;;;;;;;;107028;1269;25307;-82
2023/01/23 10:47:14;;;;;;;43.80;15.90;;;;;;;;;;106902;1275;22560;-77
2023/01/23 10:50:06;;;;;;;41.40;15.10;;;;;;;;;;107063;1275;22532;-82
2023/01/23 10:54:00;;;;;;;40.00;15.30;;;;;;;;;;107077;1253;22528;-76
2023/01/23 10:56:30;;;;;;;38.00;13.80;;;;;;;;;;107105;1275;22541;-82
2023/01/23 10:59:17;;;;;;;49.20;16.30;;;;;;;;;;107080;1275;22533;-77
2023/01/23 11:02:17;;;;;;;46.80;17.40;;;;;;;;;;107118;1275;22553;-76
2023/01/23 11:04:56;;;;;;;54.10;20.50;;;;;;;;;;110631;1253;22206;-75
2023/01/23 11:07:24;;;;;;;56.70;21.70;;;;;;;;;;110603;1275;23130;-75
2023/01/23 11:10:11;;;;;;;50.10;18.10;;;;;;;;;;110052;1281;22242;-76
2023/01/23 11:12:48;;;;;;;66.50;20.00;;;;;;;;;;110093;1281;22175;-76
2023/01/23 11:15:20;;;;;;;50.80;22.60;;;;;;;;;;110143;1258;22173;-76
2023/01/23 11:17:48;;;;;;;52.30;18.90;;;;;;;;;;110082;1280;22344;-75
2023/01/23 11:20:20;;;;;;;41.30;15.00;;;;;;;;;;110067;1280;22840;-76
2023/01/23 11:22:58;;;;;;;37.40;14.00;;;;;;;;;;110097;1280;22147;-75
2023/01/23 11:25:30;;;;;;;42.00;14.70;;;;;;;;;;110157;1259;22583;-76
2023/01/23 11:27:58;;;;;;;43.60;15.00;;;;;;;;;;110079;1281;22159;-76
2023/01/23 11:30:57;;;;;;;47.40;17.70;;;;;;;;;;110102;1281;22332;-76
2023/01/23 11:33:23;;;;;;;38.60;14.00;;;;;;;;;;109763;1287;22406;-76
2023/01/23 11:36:05;;;;;;;52.60;19.70;;;;;;;;;;109801;1265;22185;-75
2023/01/23 11:38:38;;;;;;;55.40;22.60;;;;;;;;;;109834;1286;22029;-75
2023/01/23 11:41:08;;;;;;;58.70;19.00;;;;;;;;;;109967;1282;22234;-76
2023/01/23 11:43:35;;;;;;;77.30;29.30;;;;;;;;;;109984;1282;22366;-76
2023/01/23 11:46:34;;;;;;;68.80;24.10;;;;;;;;;;109952;1265;22158;-76
2023/01/23 11:49:19;;;;;;;65.90;21.90;;;;;;;;;;109648;1289;22994;-75
2023/01/23 11:51:50;;;;;;;76.00;23.30;;;;;;;;;;109684;1289;22172;-75
2023/01/23 11:54:41;;;;;;;59.90;22.00;;;;;;;;;;109669;1269;22195;-75
2023/01/23 11:57:16;;;;;;;54.50;17.70;;;;;;;;;;109739;1288;22325;-75
2023/01/23 11:59:55;;;;;;;61.50;20.70;;;;;;;;;;109739;1288;22250;-75
2023/01/23 12:02:30;;;;;;;54.40;18.40;;;;;;;;;;109650;1288;22926;-75
2023/01/23 12:04:59;;;;;;;65.80;20.30;;;;;;;;;;109736;1266;22184;-76
2023/01/23 12:07:26;;;;;;;81.20;25.00;;;;;;;;;;109725;1289;22830;-75
2023/01/23 12:09:53;;;;;;;64.10;20.60;;;;;;;;;;109864;1284;22166;-75
2023/01/23 12:12:28;;;;;;;65.40;21.10;;;;;;;;;;109962;1284;22203;-75
2023/01/23 12:15:13;;;;;;;58.70;19.20;;;;;;;;;;109978;1261;22185;-75
2023/01/23 12:17:49;;;;;;;49.30;19.10;;;;;;;;;;109988;1283;22170;-75
2023/01/23 12:20:45;;;;;;;55.80;20.80;;;;;;;;;;109944;1277;22173;-76
2023/01/23 12:23:11;;;;;;;64.60;22.40;;;;;;;;;;109887;1284;23031;-75
2023/01/23 12:25:40;;;;;;;52.90;20.50;;;;;;;;;;110505;1253;22036;-75
2023/01/23 12:28:25;;;;;;;50.80;18.70;;;;;;;;;;110542;1275;22121;-76
2023/01/23 12:30:55;;;;;;;43.80;17.00;;;;;;;;;;110594;1275;22119;-75
2023/01/23 12:33:40;;;;;;;64.60;22.70;;;;;;;;;;110606;1275;22880;-75
2023/01/23 12:36:13;;;;;;;70.70;22.00;;;;;;;;;;110889;1253;22102;-76
2023/01/23 12:38:40;;;;;;;77.60;21.50;;;;;;;;;;110629;1275;22115;-75
2023/01/23 12:41:14;;;;;;;61.10;20.90;;;;;;;;;;110640;1275;22090;-76
2023/01/23 12:43:51;;;;;;;53.50;19.50;;;;;;;;;;110444;1276;22954;-76
2023/01/23 12:46:33;;;;;;;124.50;38.60;;;;;;;;;;110891;1256;22188;-75
2023/01/23 12:49:06;;;;;;;134.00;40.20;;;;;;;;;;110590;1275;22596;-76
2023/01/23 12:51:36;;;;;;;115.40;35.10;;;;;;;;;;110440;1275;22297;-75
2023/01/23 12:54:05;;;;;;;195.90;47.80;;;;;;;;;;110590;1275;21989;-76
2023/01/23 12:56:34;;;;;;;113.80;34.30;;;;;;;;;;110726;1258;22892;-76
2023/01/23 12:59:09;;;;;;;87.60;27.00;;;;;;;;;;110591;1275;22749;-74
2023/01/23 13:01:55;;;;;;;57.40;20.10;;;;;;;;;;110453;1275;22271;-75
2023/01/23 13:04:22;;;;;;;100.90;32.20;;;;;;;;;;110602;1269;22108;-75
2023/01/23 13:06:58;;;;;;;93.50;28.70;;;;;;;;;;110794;1257;22127;-76
2023/01/23 13:09:35;;;;;;;83.60;21.90;;;;;;;;;;110595;1275;22107;-75
2023/01/23 13:12:18;;;;;;;56.40;18.30;;;;;;;;;;110544;1275;22219;-75
2023/01/23 13:14:45;;;;;;;61.10;20.40;;;;;;;;;;110437;1274;22130;-75
2023/01/23 13:17:30;;;;;;;75.50;26.30;;;;;;;;;;110635;1253;22182;-75
2023/01/23 13:23:19;;;;;;;97.10;36.10;;;;;;;;;;110420;1277;22156;-75
2023/01/23 13:25:46;;;;;;;79.50;30.80;;;;;;;;;;110395;1254;22911;-74
2023/01/23 13:28:42;;;;;;;75.20;31.00;;;;;;;;;;110231;1276;22148;-75
2023/01/23 13:31:29;;;;;;;96.30;33.60;;;;;;;;;;110473;1276;22148;-76
2023/01/23 13:33:56;;;;;;;99.90;36.20;;;;;;;;;;110487;1276;22115;-75
2023/01/23 13:36:27;;;;;;;208.00;68.30;;;;;;;;;;110587;1257;22144;-75
2023/01/23 13:39:23;;;;;;;79.70;29.10;;;;;;;;;;110307;1277;22112;-76
2023/01/23 13:41:50;;;;;;;82.30;30.50;;;;;;;;;;110193;1276;22137;-75
2023/01/23 13:44:30;;;;;;;179.70;48.40;;;;;;;;;;110484;1277;22351;-75
2023/01/23 13:49:49;;;;;;;211.20;51.70;;;;;;;;;;110554;1256;22897;-77
2023/01/23 13:50:07;;;;;;;270.10;62.80;;;;;;;;;;110594;1276;22309;-76
2023/01/23 13:58:16;;;;;;;204.50;46.40;;;;;;;;;;110696;1256;22166;-75
2023/01/23 14:05:11;;;;;;;262.50;57.80;;;;;;;;;;110291;1277;22188;-76
2023/01/23 14:06:33;;;;;;;175.60;45.50;;;;;;;;;;110421;1277;22436;-75
2023/01/23 14:09:01;;;;;;;212.10;53.10;;;;;;;;;;110673;1267;22113;-76
2023/01/23 14:11:48;;;;;;;103.60;30.90;;;;;;;;;;110455;1277;22208;-75
2023/01/23 14:17:00;;;;;;;144.90;47.20;;;;;;;;;;110380;1253;23051;-76
2023/01/23 14:19:36;;;;;;;113.80;38.30;;;;;;;;;;110294;1277;22201;-75
2023/01/23 14:36:47;;;;;;;74.60;32.20;;;;;;;;;;109687;1289;23030;-76
2023/01/23 14:39:23;;;;;;;77.20;30.20;;;;;;;;;;109747;1273;22195;-76
2023/01/23 14:41:52;;;;;;;79.50;33.20;;;;;;;;;;109651;1289;22248;-76
2023/01/23 14:44:21;;;;;;;81.00;33.70;;;;;;;;;;109599;1289;22857;-76
2023/01/23 14:47:07;;;;;;;66.70;27.80;;;;;;;;;;109704;1289;22197;-76
2023/01/23 14:49:38;;;;;;;70.20;26.80;;;;;;;;;;109621;1268;22219;-75
2023/01/23 14:52:06;;;;;;;108.90;34.00;;;;;;;;;;109591;1289;22158;-76
2023/01/23 14:54:43;;;;;;;153.10;40.90;;;;;;;;;;109597;1289;22996;-76
2023/01/23 14:57:13;;;;;;;128.70;38.80;;;;;;;;;;109641;1289;22885;-75
2023/01/23 14:59:41;;;;;;;182.90;49.10;;;;;;;;;;109760;1268;22198;-76
2023/01/23 15:02:37;;;;;;;;;;;;;;;;;;;;;
2023/01/23 15:05:25;;;;;;;131.00;38.30;;;;;;;;;;109870;1285;22156;-78
2023/01/23 15:08:02;;;;;;;147.50;41.60;;;;;;;;;;109786;1285;22139;-76
2023/01/23 15:11:03;;;;;;;160.50;45.40;;;;;;;;;;110299;1267;22171;-75
2023/01/23 15:13:42;;;;;;;119.80;34.90;;;;;;;;;;110552;1276;23215;-76
2023/01/23 15:16:14;;;;;;;136.20;44.60;;;;;;;;;;110343;1272;22153;-75
2023/01/23 15:18:52;;;;;;;108.10;34.00;;;;;;;;;;110164;1256;22152;-75
2023/01/23 15:21:31;;;;;;;100.80;31.60;;;;;;;;;;110231;1278;22123;-76
2023/01/23 15:24:19;;;;;;;90.60;28.40;;;;;;;;;;110168;1278;22879;-76
2023/01/23 15:26:56;;;;;;;71.10;27.70;;;;;;;;;;110193;1278;22161;-74
2023/01/23 15:29:25;;;;;;;68.20;26.30;;;;;;;;;;110304;1260;22987;-75
2023/01/23 15:31:54;;;;;;;69.90;26.70;;;;;;;;;;110482;1275;22143;-75
2023/01/23 15:34:21;;;;;;;73.60;26.40;;;;;;;;;;110466;1275;23065;-75
2023/01/23 15:37:11;;;;;;;93.80;24.70;;;;;;;;;;110553;1275;22137;-75
2023/01/23 15:39:38;;;;;;;67.10;25.30;;;;;;;;;;110472;1259;22908;-75
2023/01/23 15:42:14;;;;;;;82.80;27.10;;;;;;;;;;110434;1277;22133;-74
2023/01/23 15:44:44;;;;;;;76.00;26.40;;;;;;;;;;110372;1277;22149;-74
2023/01/23 15:47:20;;;;;;;81.80;29.20;;;;;;;;;;110446;1277;22142;-75
2023/01/23 15:49:48;;;;;;;89.10;30.00;;;;;;;;;;110621;1253;22155;-75
2023/01/23 15:52:17;;;;;;;87.30;28.80;;;;;;;;;;110590;1275;22915;-76
2023/01/23 15:54:45;;;;;;;56.80;21.70;;;;;;;;;;110348;1275;22118;-76
2023/01/23 15:57:18;;;;;;;75.80;26.10;;;;;;;;;;110365;1275;22000;-75
2023/01/23 15:59:51;;;;;;;72.10;23.70;;;;;;;;;;110501;1259;22155;-76
2023/01/23 16:02:28;;;;;;;64.30;21.90;;;;;;;;;;110431;1277;22122;-77
2023/01/23 16:05:00;;;;;;;57.10;19.50;;;;;;;;;;110427;1277;22153;-74
2023/01/23 16:07:43;;;;;;;63.20;21.40;;;;;;;;;;110452;1277;22123;-77
2023/01/23 16:10:16;;;;;;;65.80;21.60;;;;;;;;;;110554;1259;22182;-76
2023/01/23 16:12:45;;;;;;;78.60;25.70;;;;;;;;;;110577;1275;22120;-76
2023/01/23 16:15:38;;;;;;;80.90;26.40;;;;;;;;;;110558;1275;22076;-76
2023/01/23 16:18:08;;;;;;;111.90;26.00;;;;;;;;;;110541;1275;22174;-76
2023/01/23 16:20:40;;;;;;;121.90;34.10;;;;;;;;;;110472;1259;22269;-76
2023/01/23 16:23:23;;;;;;;104.40;28.60;;;;;;;;;;110443;1276;22125;-76
2023/01/23 16:26:55;;;;;;;;;;;;;;;;;;;;;
2023/01/23 16:29:48;;;;;;;69.30;25.80;;;;;;;;;;110229;1257;22213;-76
2023/01/23 16:32:25;;;;;;;79.30;26.90;;;;;;;;;;110003;1280;23036;-76
2023/01/23 16:35:17;;;;;;;125.70;34.10;;;;;;;;;;110116;1278;22167;-76
2023/01/23 16:37:53;;;;;;;99.20;31.20;;;;;;;;;;110077;1280;22158;-76
2023/01/23 16:40:34;;;;;;;85.20;28.30;;;;;;;;;;110107;1257;22528;-76
2023/01/23 16:43:21;;;;;;;73.00;24.40;;;;;;;;;;110203;1279;22892;-76
2023/01/23 16:45:50;;;;;;;64.80;23.10;;;;;;;;;;110084;1279;22940;-76
2023/01/23 16:48:18;;;;;;;53.40;20.10;;;;;;;;;;110161;1279;22177;-76
2023/01/23 16:50:51;;;;;;;79.50;24.00;;;;;;;;;;110103;1263;22280;-77
2023/01/23 16:53:18;;;;;;;62.50;23.10;;;;;;;;;;110078;1280;22107;-76
2023/01/23 16:55:47;;;;;;;68.40;23.20;;;;;;;;;;110166;1280;22169;-77
2023/01/23 16:58:18;;;;;;;62.80;22.60;;;;;;;;;;109971;1280;22133;-75
2023/01/23 17:00:49;;;;;;;60.40;21.30;;;;;;;;;;110056;1260;22147;-76
2023/01/23 17:03:32;;;;;;;;;;;;;;;;;;;;;
2023/01/23 17:05:59;;;;;;;61.50;21.80;;;;;;;;;;110356;1276;22222;-76
2023/01/23 17:08:30;;;;;;;75.00;23.60;;;;;;;;;;110633;1276;22187;-82
2023/01/23 17:11:28;;;;;;;;;;;;;;;;;;;;;
2023/01/23 17:14:29;;;;;;;60.10;22.60;;;;;;;;;;110314;1278;22313;-82
2023/01/23 17:17:05;;;;;;;62.30;22.70;;;;;;;;;;110420;1278;22126;-82
2023/01/23 17:19:51;;;;;;;72.20;24.80;;;;;;;;;;110289;1278;22180;-82
2023/01/23 17:22:33;;;;;;;83.50;26.10;;;;;;;;;;110743;1257;22417;-84
2023/01/23 17:25:49;;;;;;;;;;;;;;;;;;;;;
2023/01/23 17:29:43;;;;;;;69.60;22.50;;;;;;;;;;110616;1276;22116;-82
2023/01/23 17:32:26;;;;;;;;;;;;;;;;;;;;;
2023/01/23 17:54:01;;;;;;;67.40;22.10;;;;;;;;;;109592;1271;22170;-78
2023/01/23 17:56:40;;;;;;;;;;;;;;;;;;;;;
2023/01/23 17:59:09;;;;;;;69.70;22.80;;;;;;;;;;109648;1289;22177;-78
2023/01/23 18:01:39;;;;;;;79.60;29.30;;;;;;;;;;109538;1289;22239;-78
2023/01/23 18:04:17;;;;;;;69.60;25.40;;;;;;;;;;109505;1274;22277;-77
2023/01/23 18:06:48;;;;;;;72.80;25.40;;;;;;;;;;109573;1284;22277;-77
2023/01/23 18:09:18;;;;;;;65.90;22.50;;;;;;;;;;109527;1290;22207;-77
2023/01/23 18:12:01;;;;;;;;;;;;;;;;;;;;;
2023/01/23 18:15:28;;;;;;;71.70;24.10;;;;;;;;;;109218;1274;22261;-78
2023/01/23 18:18:30;;;;;;;;;;;;;;;;;;;;;
2023/01/23 18:28:24;;;;;;;;;;;;;;;;;;;;;
2023/01/23 18:32:17;;;;;;;65.40;21.30;;;;;;;;;;107086;1275;22509;-83
2023/01/23 18:34:57;;;;;;;;;;;;;;;;;;;;;
2023/01/23 18:38:05;;;;;;;66.70;23.50;;;;;;;;;;106386;1265;25237;-82
2023/01/23 18:41:06;;;;;;;56.20;20.40;;;;;;;;;;102814;1276;5429066;-79
2023/01/23 18:45:13;;;;;;;81.10;27.40;;;;;;;;;;106091;1287;22579;-81
2023/01/23 18:47:40;;;;;;;81.60;29.00;;;;;;;;;;106238;1264;23457;-80
2023/01/23 18:50:57;;;;;;;159.80;42.60;;;;;;;;;;106111;1287;22542;-83
2023/01/23 18:54:11;;;;;;;143.30;34.80;;;;;;;;;;105969;1287;24388;-81
2023/01/23 18:56:57;;;;;;;100.90;27.90;;;;;;;;;;106183;1287;25501;-78